< Typhoon 196717 1967 Season Typhoon 196719 >
Typhoon 196718 (LOUISE)
General InformationTrack Information on Google Maps || Disaster Info.ResourceGoogle EarthGE AnimationAtom FeedGeoJSON
Detalied Best Track (Time Zone = UTC)
Year Month Day Hour Lat. Long. Pressure (hPa) Wind (kt) Class Image Chart
1967 8 15 00 19.3 144.3 1008 0 2 -- Chart
1967 8 15 06 19.5 144.7 1006 0 2 -- Chart
1967 8 15 12 20.0 144.1 1006 0 2 -- Chart
1967 8 15 18 19.9 143.1 1006 0 2 -- Chart
1967 8 16 00 20.4 142.9 1004 0 2 -- Chart
1967 8 16 06 20.4 142.0 1000 0 2 -- Chart
1967 8 16 12 20.3 142.0 1000 0 2 -- Chart
1967 8 16 18 19.8 141.7 1000 0 2 -- Chart
1967 8 17 00 19.4 141.3 1000 0 2 -- Chart
1967 8 17 06 18.9 141.5 1000 0 2 -- Chart
1967 8 17 12 18.3 141.5 1000 0 2 -- Chart
1967 8 17 18 18.5 142.0 1000 0 2 -- Chart
1967 8 18 00 18.8 142.3 1000 0 2 -- Chart
1967 8 18 06 19.6 142.0 996 0 9 -- Chart
1967 8 18 12 20.5 141.2 996 0 9 -- Chart
1967 8 18 18 21.0 140.1 996 0 9 -- Chart
1967 8 19 00 21.3 139.2 996 0 9 -- Chart
1967 8 19 06 22.1 137.9 996 0 9 -- Chart
1967 8 19 12 23.3 136.7 998 0 9 -- Chart
1967 8 19 18 25.2 135.5 996 0 9 -- Chart
1967 8 20 00 27.0 134.6 990 0 9 -- Chart
1967 8 20 06 27.8 133.9 986 0 9 -- Chart
1967 8 20 12 28.4 133.5 988 0 9 -- Chart
1967 8 20 18 29.0 133.4 988 0 9 -- Chart
1967 8 21 00 29.8 133.3 986 0 9 -- Chart
1967 8 21 06 30.5 133.4 985 0 9 -- Chart
1967 8 21 12 31.3 133.8 985 0 9 -- Chart
1967 8 21 18 32.2 134.4 980 0 9 -- Chart
1967 8 22 00 33.0 135.1 980 0 9 -- Chart
1967 8 22 06 33.6 135.8 980 0 9 -- Chart
1967 8 22 12 34.2 136.3 988 0 9 -- Chart
1967 8 22 18 34.5 136.9 993 0 9 -- Chart
1967 8 23 00 34.6 137.6 995 0 2 -- Chart
1967 8 23 06 35.0 138.9 996 0 2 -- Chart
1967 8 23 12 35.5 140.1 1000 0 2 -- Chart
1967 8 23 18 36.6 141.8 1000 0 2 -- Chart
1967 8 24 00 38.0 144.0 1002 0 2 -- Chart
Japan Meteorological Agency Best Track Data | Correction Date : 1989-06-01
< Typhoon 196717 1967 Season Typhoon 196719 >

Help